Niamtougou International

Airport
ICAO code: 
DXNG
Summary
ICAO Region: 
AFI
Territory: 
Location: 
Niamtougou,
Coordinates: 
Aerial View: 
9° 46' 10.621" N, 1° 5' 34.001" E
Metar
Observation
DXNG 251400Z 04007KT 350V080 CAVOK 31/M07 Q1013
Station
Niamtougou
Date/Time
2022-01-25 14:00:00
Wind direction
40°
Wind speed
07 kts
Lowest cloud amount
clouds and visibility OK
Temperature
31°C
Dew point
-7°C
Humidity
8%
QNH
1013 hPa
Weather condition
n/a

Description

Niamtougou International Airport is an airport serving Niamtougou in Togo.

Climatology

Runways

Designator Length Width Surface Rops
3/21 2500 45 CON No/No
Airport map: 
Aerial View: 

SKYbrary Partners:

Safety knowledge contributed by: